sensor_id;sensor_type;location;lat;lon;timestamp;temperature;humidity
22418;DHT22;11376;50.932;4.442;2023-04-03T00:00:09;3.00;99.90
22418;DHT22;11376;50.932;4.442;2023-04-03T00:02:35;3.00;99.90
22418;DHT22;11376;50.932;4.442;2023-04-03T00:05:01;3.00;99.90
22418;DHT22;11376;50.932;4.442;2023-04-03T00:07:26;3.10;99.90
22418;DHT22;11376;50.932;4.442;2023-04-03T00:09:52;3.10;99.90
22418;DHT22;11376;50.932;4.442;2023-04-03T00:12:18;3.20;99.90
22418;DHT22;11376;50.932;4.442;2023-04-03T00:14:43;3.30;99.90
22418;DHT22;11376;50.932;4.442;2023-04-03T00:17:09;3.20;99.90
22418;DHT22;11376;50.932;4.442;2023-04-03T00:19:35;3.10;99.90
22418;DHT22;11376;50.932;4.442;2023-04-03T00:22:01;3.10;99.90
22418;DHT22;11376;50.932;4.442;2023-04-03T00:24:26;3.00;99.90
22418;DHT22;11376;50.932;4.442;2023-04-03T00:26:52;3.00;99.90
22418;DHT22;11376;50.932;4.442;2023-04-03T00:29:18;2.90;99.90
22418;DHT22;11376;50.932;4.442;2023-04-03T00:31:43;3.00;99.90
22418;DHT22;11376;50.932;4.442;2023-04-03T00:34:09;3.00;99.90
22418;DHT22;11376;50.932;4.442;2023-04-03T00:36:35;2.90;99.90
22418;DHT22;11376;50.932;4.442;2023-04-03T00:39:01;3.00;99.90
22418;DHT22;11376;50.932;4.442;2023-04-03T00:41:26;2.90;99.90
22418;DHT22;11376;50.932;4.442;2023-04-03T00:43:52;2.90;99.90
22418;DHT22;11376;50.932;4.442;2023-04-03T00:46:18;2.90;99.90
22418;DHT22;11376;50.932;4.442;2023-04-03T00:48:45;2.90;99.90
22418;DHT22;11376;50.932;4.442;2023-04-03T00:51:17;2.80;99.90
22418;DHT22;11376;50.932;4.442;2023-04-03T00:53:58;2.80;99.90
22418;DHT22;11376;50.932;4.442;2023-04-03T00:56:26;2.90;99.90
22418;DHT22;11376;50.932;4.442;2023-04-03T01:01:28;2.90;99.90
22418;DHT22;11376;50.932;4.442;2023-04-03T01:03:55;2.90;99.90
22418;DHT22;11376;50.932;4.442;2023-04-03T01:06:24;2.90;99.90
22418;DHT22;11376;50.932;4.442;2023-04-03T01:08:52;2.90;99.90
22418;DHT22;11376;50.932;4.442;2023-04-03T01:11:18;2.90;99.90
22418;DHT22;11376;50.932;4.442;2023-04-03T01:13:46;3.00;99.90
22418;DHT22;11376;50.932;4.442;2023-04-03T01:16:12;3.10;99.90
22418;DHT22;11376;50.932;4.442;2023-04-03T01:18:39;3.00;99.90
22418;DHT22;11376;50.932;4.442;2023-04-03T01:26:33;2.80;99.90
22418;DHT22;11376;50.932;4.442;2023-04-03T01:29:00;2.70;99.90
22418;DHT22;11376;50.932;4.442;2023-04-03T01:34:14;2.70;99.90
22418;DHT22;11376;50.932;4.442;2023-04-03T01:36:40;2.60;99.90
22418;DHT22;11376;50.932;4.442;2023-04-03T01:39:06;2.60;99.90
22418;DHT22;11376;50.932;4.442;2023-04-03T01:41:32;2.60;99.90
22418;DHT22;11376;50.932;4.442;2023-04-03T01:43:58;2.50;99.90
22418;DHT22;11376;50.932;4.442;2023-04-03T01:46:23;2.50;99.90
22418;DHT22;11376;50.932;4.442;2023-04-03T01:48:51;2.50;99.90
22418;DHT22;11376;50.932;4.442;2023-04-03T01:51:17;2.50;99.90
22418;DHT22;11376;50.932;4.442;2023-04-03T01:53:43;2.50;99.90
22418;DHT22;11376;50.932;4.442;2023-04-03T01:56:09;2.60;99.90
22418;DHT22;11376;50.932;4.442;2023-04-03T01:58:35;2.60;99.90
22418;DHT22;11376;50.932;4.442;2023-04-03T02:01:01;2.50;99.90
22418;DHT22;11376;50.932;4.442;2023-04-03T02:03:27;2.50;99.90
22418;DHT22;11376;50.932;4.442;2023-04-03T02:05:52;2.50;99.90
22418;DHT22;11376;50.932;4.442;2023-04-03T02:08:18;2.60;99.90
22418;DHT22;11376;50.932;4.442;2023-04-03T02:10:46;2.60;99.90
22418;DHT22;11376;50.932;4.442;2023-04-03T02:13:12;2.70;99.90
22418;DHT22;11376;50.932;4.442;2023-04-03T02:15:38;2.80;99.90
22418;DHT22;11376;50.932;4.442;2023-04-03T02:18:05;2.70;99.90
22418;DHT22;11376;50.932;4.442;2023-04-03T02:20:31;2.60;99.90
22418;DHT22;11376;50.932;4.442;2023-04-03T02:22:57;2.50;99.90
22418;DHT22;11376;50.932;4.442;2023-04-03T02:25:22;2.50;99.90
22418;DHT22;11376;50.932;4.442;2023-04-03T02:27:48;2.50;99.90
22418;DHT22;11376;50.932;4.442;2023-04-03T02:30:13;2.60;99.90
22418;DHT22;11376;50.932;4.442;2023-04-03T02:32:40;2.70;99.90
22418;DHT22;11376;50.932;4.442;2023-04-03T02:35:06;2.60;99.90
22418;DHT22;11376;50.932;4.442;2023-04-03T02:37:32;2.60;99.90
22418;DHT22;11376;50.932;4.442;2023-04-03T02:39:58;2.50;99.90
22418;DHT22;11376;50.932;4.442;2023-04-03T02:42:24;2.40;99.90
22418;DHT22;11376;50.932;4.442;2023-04-03T02:44:50;2.30;99.90
22418;DHT22;11376;50.932;4.442;2023-04-03T02:47:15;2.30;99.90
22418;DHT22;11376;50.932;4.442;2023-04-03T02:49:41;2.30;99.90
22418;DHT22;11376;50.932;4.442;2023-04-03T02:52:09;2.40;99.90
22418;DHT22;11376;50.932;4.442;2023-04-03T02:54:35;2.30;99.90
22418;DHT22;11376;50.932;4.442;2023-04-03T02:57:01;2.30;99.90
22418;DHT22;11376;50.932;4.442;2023-04-03T02:59:27;2.30;99.90
22418;DHT22;11376;50.932;4.442;2023-04-03T03:01:52;2.30;99.90
22418;DHT22;11376;50.932;4.442;2023-04-03T03:04:18;2.40;99.90
22418;DHT22;11376;50.932;4.442;2023-04-03T03:06:44;2.30;99.90
22418;DHT22;11376;50.932;4.442;2023-04-03T03:09:10;2.30;99.90
22418;DHT22;11376;50.932;4.442;2023-04-03T03:11:36;2.20;99.90
22418;DHT22;11376;50.932;4.442;2023-04-03T03:14:01;2.10;99.90
22418;DHT22;11376;50.932;4.442;2023-04-03T03:16:27;2.00;99.90
22418;DHT22;11376;50.932;4.442;2023-04-03T03:18:52;2.00;99.90
22418;DHT22;11376;50.932;4.442;2023-04-03T03:21:18;1.90;99.90
22418;DHT22;11376;50.932;4.442;2023-04-03T03:23:44;2.00;99.90
22418;DHT22;11376;50.932;4.442;2023-04-03T03:26:10;2.00;99.90
22418;DHT22;11376;50.932;4.442;2023-04-03T03:28:37;2.10;99.90
22418;DHT22;11376;50.932;4.442;2023-04-03T03:31:04;2.20;99.90
22418;DHT22;11376;50.932;4.442;2023-04-03T03:33:30;2.20;99.90
22418;DHT22;11376;50.932;4.442;2023-04-03T03:35:56;2.20;99.90
22418;DHT22;11376;50.932;4.442;2023-04-03T03:38:22;2.20;99.90
22418;DHT22;11376;50.932;4.442;2023-04-03T03:40:48;2.10;99.90
22418;DHT22;11376;50.932;4.442;2023-04-03T03:43:15;1.90;99.90
22418;DHT22;11376;50.932;4.442;2023-04-03T03:45:40;1.90;99.90
22418;DHT22;11376;50.932;4.442;2023-04-03T03:48:06;1.80;99.90
22418;DHT22;11376;50.932;4.442;2023-04-03T03:50:32;1.80;99.90
22418;DHT22;11376;50.932;4.442;2023-04-03T03:52:57;1.70;99.90
22418;DHT22;11376;50.932;4.442;2023-04-03T03:55:23;1.70;99.90
22418;DHT22;11376;50.932;4.442;2023-04-03T03:57:49;1.70;99.90
22418;DHT22;11376;50.932;4.442;2023-04-03T04:00:14;1.70;99.90
22418;DHT22;11376;50.932;4.442;2023-04-03T04:02:40;1.70;99.90
22418;DHT22;11376;50.932;4.442;2023-04-03T04:05:06;1.60;99.90
22418;DHT22;11376;50.932;4.442;2023-04-03T04:07:32;1.60;99.90
22418;DHT22;11376;50.932;4.442;2023-04-03T04:09:58;1.50;99.90
22418;DHT22;11376;50.932;4.442;2023-04-03T04:12:23;1.50;99.90
22418;DHT22;11376;50.932;4.442;2023-04-03T04:14:49;1.50;99.90
22418;DHT22;11376;50.932;4.442;2023-04-03T04:17:14;1.50;99.90
22418;DHT22;11376;50.932;4.442;2023-04-03T04:19:40;1.50;99.90
22418;DHT22;11376;50.932;4.442;2023-04-03T04:22:06;1.40;99.90
22418;DHT22;11376;50.932;4.442;2023-04-03T04:24:32;1.50;99.90
22418;DHT22;11376;50.932;4.442;2023-04-03T04:26:57;1.50;99.90
22418;DHT22;11376;50.932;4.442;2023-04-03T04:29:23;1.50;99.90
22418;DHT22;11376;50.932;4.442;2023-04-03T04:31:49;1.50;99.90
22418;DHT22;11376;50.932;4.442;2023-04-03T04:34:15;1.50;99.90
22418;DHT22;11376;50.932;4.442;2023-04-03T04:36:40;1.50;99.90
22418;DHT22;11376;50.932;4.442;2023-04-03T04:39:06;1.60;99.90
22418;DHT22;11376;50.932;4.442;2023-04-03T04:41:32;1.80;99.90
22418;DHT22;11376;50.932;4.442;2023-04-03T04:43:58;1.70;99.90
22418;DHT22;11376;50.932;4.442;2023-04-03T04:46:24;1.60;99.90
22418;DHT22;11376;50.932;4.442;2023-04-03T04:48:49;1.50;99.90
22418;DHT22;11376;50.932;4.442;2023-04-03T04:51:15;1.40;99.90
22418;DHT22;11376;50.932;4.442;2023-04-03T04:53:41;1.40;99.90
22418;DHT22;11376;50.932;4.442;2023-04-03T04:56:07;1.40;99.90
22418;DHT22;11376;50.932;4.442;2023-04-03T04:58:33;1.40;99.90
22418;DHT22;11376;50.932;4.442;2023-04-03T05:01:06;1.40;99.90
22418;DHT22;11376;50.932;4.442;2023-04-03T05:03:32;1.30;99.90
22418;DHT22;11376;50.932;4.442;2023-04-03T05:05:58;1.20;99.90
22418;DHT22;11376;50.932;4.442;2023-04-03T05:08:24;1.20;99.90
22418;DHT22;11376;50.932;4.442;2023-04-03T05:10:50;1.10;99.90
22418;DHT22;11376;50.932;4.442;2023-04-03T05:13:16;1.20;99.90
22418;DHT22;11376;50.932;4.442;2023-04-03T05:15:42;1.20;99.90
22418;DHT22;11376;50.932;4.442;2023-04-03T05:18:08;1.20;99.90
22418;DHT22;11376;50.932;4.442;2023-04-03T05:20:33;1.20;99.90
22418;DHT22;11376;50.932;4.442;2023-04-03T05:23:00;1.20;99.90
22418;DHT22;11376;50.932;4.442;2023-04-03T05:25:26;1.20;99.90
22418;DHT22;11376;50.932;4.442;2023-04-03T05:27:52;1.20;99.90
22418;DHT22;11376;50.932;4.442;2023-04-03T05:30:17;1.20;99.90
22418;DHT22;11376;50.932;4.442;2023-04-03T05:32:43;1.20;99.90
22418;DHT22;11376;50.932;4.442;2023-04-03T05:35:09;1.30;99.90
22418;DHT22;11376;50.932;4.442;2023-04-03T05:37:35;1.30;99.90
22418;DHT22;11376;50.932;4.442;2023-04-03T05:40:02;1.30;99.90
22418;DHT22;11376;50.932;4.442;2023-04-03T05:42:28;1.50;99.90
22418;DHT22;11376;50.932;4.442;2023-04-03T05:44:54;1.60;99.90
22418;DHT22;11376;50.932;4.442;2023-04-03T05:47:19;1.60;99.90
22418;DHT22;11376;50.932;4.442;2023-04-03T05:49:45;1.50;99.90
22418;DHT22;11376;50.932;4.442;2023-04-03T05:52:21;1.50;99.90
22418;DHT22;11376;50.932;4.442;2023-04-03T05:54:48;1.50;99.90
22418;DHT22;11376;50.932;4.442;2023-04-03T05:57:15;1.60;99.90
22418;DHT22;11376;50.932;4.442;2023-04-03T05:59:45;1.60;99.90
22418;DHT22;11376;50.932;4.442;2023-04-03T06:02:14;1.60;99.90
22418;DHT22;11376;50.932;4.442;2023-04-03T06:04:39;1.80;99.90
22418;DHT22;11376;50.932;4.442;2023-04-03T06:07:06;2.00;99.90
22418;DHT22;11376;50.932;4.442;2023-04-03T06:09:33;2.00;99.90
22418;DHT22;11376;50.932;4.442;2023-04-03T06:11:58;1.90;99.90
22418;DHT22;11376;50.932;4.442;2023-04-03T06:14:25;1.90;99.90
22418;DHT22;11376;50.932;4.442;2023-04-03T06:16:51;1.90;99.90
22418;DHT22;11376;50.932;4.442;2023-04-03T06:19:17;1.90;99.90
22418;DHT22;11376;50.932;4.442;2023-04-03T06:21:43;1.90;99.90
22418;DHT22;11376;50.932;4.442;2023-04-03T06:24:10;2.00;99.90
22418;DHT22;11376;50.932;4.442;2023-04-03T06:26:37;2.10;99.90
22418;DHT22;11376;50.932;4.442;2023-04-03T06:29:03;2.20;99.90
22418;DHT22;11376;50.932;4.442;2023-04-03T06:31:29;2.40;99.90
22418;DHT22;11376;50.932;4.442;2023-04-03T06:33:55;2.30;99.90
22418;DHT22;11376;50.932;4.442;2023-04-03T06:36:21;2.50;99.90
22418;DHT22;11376;50.932;4.442;2023-04-03T06:38:47;2.50;99.90
22418;DHT22;11376;50.932;4.442;2023-04-03T06:41:13;2.60;99.90
22418;DHT22;11376;50.932;4.442;2023-04-03T06:43:39;2.60;99.90
22418;DHT22;11376;50.932;4.442;2023-04-03T06:46:05;2.70;99.90
22418;DHT22;11376;50.932;4.442;2023-04-03T06:48:31;2.70;99.90
22418;DHT22;11376;50.932;4.442;2023-04-03T06:50:57;2.80;99.90
22418;DHT22;11376;50.932;4.442;2023-04-03T06:53:23;2.90;99.90
22418;DHT22;11376;50.932;4.442;2023-04-03T06:55:48;3.00;99.90
22418;DHT22;11376;50.932;4.442;2023-04-03T06:58:14;3.20;99.90
22418;DHT22;11376;50.932;4.442;2023-04-03T07:00:42;3.30;99.90
22418;DHT22;11376;50.932;4.442;2023-04-03T07:03:08;3.40;99.90
22418;DHT22;11376;50.932;4.442;2023-04-03T07:05:33;3.50;99.90
22418;DHT22;11376;50.932;4.442;2023-04-03T07:07:59;3.50;99.90
22418;DHT22;11376;50.932;4.442;2023-04-03T07:10:25;3.60;99.90
22418;DHT22;11376;50.932;4.442;2023-04-03T07:12:51;3.80;99.90
22418;DHT22;11376;50.932;4.442;2023-04-03T07:15:16;3.80;99.90
22418;DHT22;11376;50.932;4.442;2023-04-03T07:17:42;3.80;99.90
22418;DHT22;11376;50.932;4.442;2023-04-03T07:20:08;3.90;99.90
22418;DHT22;11376;50.932;4.442;2023-04-03T07:22:34;4.10;99.90
22418;DHT22;11376;50.932;4.442;2023-04-03T07:25:00;4.20;99.90
22418;DHT22;11376;50.932;4.442;2023-04-03T07:27:26;4.20;99.90
22418;DHT22;11376;50.932;4.442;2023-04-03T07:29:52;4.30;99.90
22418;DHT22;11376;50.932;4.442;2023-04-03T07:32:17;4.40;99.90
22418;DHT22;11376;50.932;4.442;2023-04-03T07:34:43;4.50;99.90
22418;DHT22;11376;50.932;4.442;2023-04-03T07:37:09;4.70;99.90
22418;DHT22;11376;50.932;4.442;2023-04-03T07:39:35;4.70;99.90
22418;DHT22;11376;50.932;4.442;2023-04-03T07:42:01;4.80;99.90
22418;DHT22;11376;50.932;4.442;2023-04-03T07:44:27;5.00;99.90
22418;DHT22;11376;50.932;4.442;2023-04-03T07:46:53;5.10;99.90
22418;DHT22;11376;50.932;4.442;2023-04-03T07:49:18;5.30;99.90
22418;DHT22;11376;50.932;4.442;2023-04-03T07:51:45;5.30;99.90
22418;DHT22;11376;50.932;4.442;2023-04-03T07:54:10;5.50;99.90
22418;DHT22;11376;50.932;4.442;2023-04-03T07:56:36;5.60;99.90
22418;DHT22;11376;50.932;4.442;2023-04-03T07:59:02;5.60;99.90
22418;DHT22;11376;50.932;4.442;2023-04-03T08:01:27;5.70;99.90
22418;DHT22;11376;50.932;4.442;2023-04-03T08:03:53;5.70;99.90
22418;DHT22;11376;50.932;4.442;2023-04-03T08:06:19;5.70;99.90
22418;DHT22;11376;50.932;4.442;2023-04-03T08:08:44;5.80;99.90
22418;DHT22;11376;50.932;4.442;2023-04-03T08:11:11;6.00;99.90
22418;DHT22;11376;50.932;4.442;2023-04-03T08:13:37;6.10;99.90
22418;DHT22;11376;50.932;4.442;2023-04-03T08:16:16;6.20;99.90
22418;DHT22;11376;50.932;4.442;2023-04-03T08:18:42;6.20;99.90
22418;DHT22;11376;50.932;4.442;2023-04-03T08:21:09;6.40;99.90
22418;DHT22;11376;50.932;4.442;2023-04-03T08:23:36;6.50;99.90
22418;DHT22;11376;50.932;4.442;2023-04-03T08:26:10;6.60;99.90
22418;DHT22;11376;50.932;4.442;2023-04-03T08:28:37;6.70;99.90
22418;DHT22;11376;50.932;4.442;2023-04-03T08:31:07;6.70;99.90
22418;DHT22;11376;50.932;4.442;2023-04-03T08:33:34;6.80;99.90
22418;DHT22;11376;50.932;4.442;2023-04-03T08:36:05;6.90;99.90
22418;DHT22;11376;50.932;4.442;2023-04-03T08:38:35;7.10;99.90
22418;DHT22;11376;50.932;4.442;2023-04-03T08:41:32;7.20;99.90
22418;DHT22;11376;50.932;4.442;2023-04-03T08:49:44;7.30;99.90
22418;DHT22;11376;50.932;4.442;2023-04-03T08:52:14;7.30;99.90
22418;DHT22;11376;50.932;4.442;2023-04-03T08:54:50;7.30;99.90
22418;DHT22;11376;50.932;4.442;2023-04-03T08:57:20;7.30;99.90
22418;DHT22;11376;50.932;4.442;2023-04-03T08:59:51;7.40;99.90
22418;DHT22;11376;50.932;4.442;2023-04-03T09:02:52;7.50;99.90
22418;DHT22;11376;50.932;4.442;2023-04-03T09:08:00;7.70;99.90
22418;DHT22;11376;50.932;4.442;2023-04-03T09:10:35;7.70;99.90
22418;DHT22;11376;50.932;4.442;2023-04-03T09:13:24;7.90;99.90
22418;DHT22;11376;50.932;4.442;2023-04-03T09:15:53;8.10;99.90
22418;DHT22;11376;50.932;4.442;2023-04-03T09:18:20;8.10;99.90
22418;DHT22;11376;50.932;4.442;2023-04-03T09:21:08;8.20;99.90
22418;DHT22;11376;50.932;4.442;2023-04-03T09:23:45;8.40;99.90
22418;DHT22;11376;50.932;4.442;2023-04-03T09:28:47;8.70;99.90
22418;DHT22;11376;50.932;4.442;2023-04-03T09:31:27;8.80;99.90
22418;DHT22;11376;50.932;4.442;2023-04-03T09:33:58;8.80;99.90
22418;DHT22;11376;50.932;4.442;2023-04-03T09:36:45;8.80;99.90
22418;DHT22;11376;50.932;4.442;2023-04-03T09:39:21;8.90;99.90
22418;DHT22;11376;50.932;4.442;2023-04-03T09:42:03;8.90;99.90
22418;DHT22;11376;50.932;4.442;2023-04-03T09:44:37;9.10;99.90
22418;DHT22;11376;50.932;4.442;2023-04-03T09:49:44;9.10;99.90
22418;DHT22;11376;50.932;4.442;2023-04-03T09:52:24;9.10;99.90
22418;DHT22;11376;50.932;4.442;2023-04-03T09:54:50;9.20;99.90
22418;DHT22;11376;50.932;4.442;2023-04-03T09:57:16;9.20;99.90
22418;DHT22;11376;50.932;4.442;2023-04-03T09:59:59;9.40;99.90
22418;DHT22;11376;50.932;4.442;2023-04-03T10:02:36;9.60;99.90
22418;DHT22;11376;50.932;4.442;2023-04-03T10:05:05;9.60;99.90
22418;DHT22;11376;50.932;4.442;2023-04-03T10:07:49;9.60;99.90
22418;DHT22;11376;50.932;4.442;2023-04-03T10:10:20;9.60;99.90
22418;DHT22;11376;50.932;4.442;2023-04-03T10:12:48;9.60;99.90
22418;DHT22;11376;50.932;4.442;2023-04-03T10:15:15;9.60;99.90
22418;DHT22;11376;50.932;4.442;2023-04-03T10:17:56;9.70;99.90
22418;DHT22;11376;50.932;4.442;2023-04-03T10:32:10;10.60;99.90
22418;DHT22;11376;50.932;4.442;2023-04-03T10:34:43;11.40;99.90
22418;DHT22;11376;50.932;4.442;2023-04-03T10:37:24;12.00;99.90
22418;DHT22;11376;50.932;4.442;2023-04-03T10:40:22;12.50;99.90
22418;DHT22;11376;50.932;4.442;2023-04-03T10:43:06;12.80;99.90
22418;DHT22;11376;50.932;4.442;2023-04-03T10:45:57;14.40;99.90
22418;DHT22;11376;50.932;4.442;2023-04-03T10:48:56;16.30;97.50
22418;DHT22;11376;50.932;4.442;2023-04-03T10:51:48;17.30;91.10
22418;DHT22;11376;50.932;4.442;2023-04-03T10:54:26;18.40;82.10
22418;DHT22;11376;50.932;4.442;2023-04-03T10:57:13;19.50;74.80
22418;DHT22;11376;50.932;4.442;2023-04-03T11:00:04;19.70;66.70
22418;DHT22;11376;50.932;4.442;2023-04-03T11:02:51;21.00;62.80
22418;DHT22;11376;50.932;4.442;2023-04-03T11:05:43;21.50;57.90
22418;DHT22;11376;50.932;4.442;2023-04-03T11:10:45;22.60;50.50
22418;DHT22;11376;50.932;4.442;2023-04-03T11:13:17;21.50;51.70
22418;DHT22;11376;50.932;4.442;2023-04-03T11:15:45;20.90;51.90
22418;DHT22;11376;50.932;4.442;2023-04-03T11:18:55;21.80;50.30
22418;DHT22;11376;50.932;4.442;2023-04-03T11:21:20;22.80;50.30
22418;DHT22;11376;50.932;4.442;2023-04-03T11:23:48;24.60;46.00
22418;DHT22;11376;50.932;4.442;2023-04-03T11:26:19;24.50;45.70
22418;DHT22;11376;50.932;4.442;2023-04-03T11:28:46;24.90;42.60
22418;DHT22;11376;50.932;4.442;2023-04-03T11:32:01;25.70;40.80
22418;DHT22;11376;50.932;4.442;2023-04-03T11:37:52;24.30;40.40
22418;DHT22;11376;50.932;4.442;2023-04-03T11:39:56;25.50;38.80
22418;DHT22;11376;50.932;4.442;2023-04-03T11:42:28;26.30;37.90
22418;DHT22;11376;50.932;4.442;2023-04-03T11:45:16;25.70;38.20
22418;DHT22;11376;50.932;4.442;2023-04-03T11:47:48;25.50;37.60
22418;DHT22;11376;50.932;4.442;2023-04-03T11:53:48;26.60;36.00
22418;DHT22;11376;50.932;4.442;2023-04-03T11:58:31;25.60;36.90
22418;DHT22;11376;50.932;4.442;2023-04-03T12:01:06;26.60;35.50
22418;DHT22;11376;50.932;4.442;2023-04-03T12:08:46;27.00;33.20
22418;DHT22;11376;50.932;4.442;2023-04-03T12:21:15;29.00;31.50
22418;DHT22;11376;50.932;4.442;2023-04-03T12:26:50;29.00;30.00
22418;DHT22;11376;50.932;4.442;2023-04-03T12:32:12;28.50;28.30
22418;DHT22;11376;50.932;4.442;2023-04-03T12:40:00;28.90;28.10
22418;DHT22;11376;50.932;4.442;2023-04-03T12:45:24;29.70;27.20
22418;DHT22;11376;50.932;4.442;2023-04-03T12:47:53;30.00;26.80
22418;DHT22;11376;50.932;4.442;2023-04-03T12:50:28;31.10;26.20
22418;DHT22;11376;50.932;4.442;2023-04-03T12:53:34;30.50;25.80
22418;DHT22;11376;50.932;4.442;2023-04-03T12:56:27;30.80;25.70
22418;DHT22;11376;50.932;4.442;2023-04-03T12:58:55;31.40;25.50
22418;DHT22;11376;50.932;4.442;2023-04-03T13:01:26;30.50;25.30
22418;DHT22;11376;50.932;4.442;2023-04-03T13:03:55;31.20;24.80
22418;DHT22;11376;50.932;4.442;2023-04-03T13:06:25;30.50;25.00
22418;DHT22;11376;50.932;4.442;2023-04-03T13:08:57;30.40;24.50
22418;DHT22;11376;50.932;4.442;2023-04-03T13:11:31;30.60;24.50
22418;DHT22;11376;50.932;4.442;2023-04-03T13:14:01;31.10;24.30
22418;DHT22;11376;50.932;4.442;2023-04-03T13:16:28;30.80;23.70
22418;DHT22;11376;50.932;4.442;2023-04-03T13:18:55;30.90;23.60
22418;DHT22;11376;50.932;4.442;2023-04-03T13:21:27;30.80;23.60
22418;DHT22;11376;50.932;4.442;2023-04-03T13:23:59;30.40;24.10
22418;DHT22;11376;50.932;4.442;2023-04-03T13:26:29;30.80;24.10
22418;DHT22;11376;50.932;4.442;2023-04-03T13:29:05;30.90;24.30
22418;DHT22;11376;50.932;4.442;2023-04-03T13:31:40;29.80;24.50
22418;DHT22;11376;50.932;4.442;2023-04-03T13:34:11;29.20;25.20
22418;DHT22;11376;50.932;4.442;2023-04-03T13:36:44;27.90;25.40
22418;DHT22;11376;50.932;4.442;2023-04-03T13:41:38;25.20;28.00
22418;DHT22;11376;50.932;4.442;2023-04-03T13:46:49;23.10;31.80
22418;DHT22;11376;50.932;4.442;2023-04-03T13:51:51;22.00;33.10
22418;DHT22;11376;50.932;4.442;2023-04-03T13:56:45;21.00;33.90
22418;DHT22;11376;50.932;4.442;2023-04-03T14:01:53;21.20;33.40
22418;DHT22;11376;50.932;4.442;2023-04-03T14:04:28;21.60;32.70
22418;DHT22;11376;50.932;4.442;2023-04-03T14:06:54;22.10;31.50
22418;DHT22;11376;50.932;4.442;2023-04-03T14:09:21;22.80;30.90
22418;DHT22;11376;50.932;4.442;2023-04-03T14:11:49;23.80;29.20
22418;DHT22;11376;50.932;4.442;2023-04-03T14:14:20;24.40;28.30
22418;DHT22;11376;50.932;4.442;2023-04-03T14:16:51;24.60;28.10
22418;DHT22;11376;50.932;4.442;2023-04-03T14:19:24;25.70;28.30
22418;DHT22;11376;50.932;4.442;2023-04-03T14:21:51;26.70;27.10
22418;DHT22;11376;50.932;4.442;2023-04-03T14:24:18;27.10;26.50
22418;DHT22;11376;50.932;4.442;2023-04-03T14:26:45;27.40;25.90
22418;DHT22;11376;50.932;4.442;2023-04-03T14:29:12;27.30;26.00
22418;DHT22;11376;50.932;4.442;2023-04-03T14:31:39;27.80;25.90
22418;DHT22;11376;50.932;4.442;2023-04-03T14:34:05;28.50;26.50
22418;DHT22;11376;50.932;4.442;2023-04-03T14:36:31;27.80;25.50
22418;DHT22;11376;50.932;4.442;2023-04-03T14:38:58;26.90;26.10
22418;DHT22;11376;50.932;4.442;2023-04-03T14:41:25;26.50;26.00
22418;DHT22;11376;50.932;4.442;2023-04-03T14:43:52;26.80;26.70
22418;DHT22;11376;50.932;4.442;2023-04-03T14:48:47;26.60;26.80
22418;DHT22;11376;50.932;4.442;2023-04-03T14:51:14;25.90;26.90
22418;DHT22;11376;50.932;4.442;2023-04-03T14:53:42;25.60;26.50
22418;DHT22;11376;50.932;4.442;2023-04-03T14:56:16;24.80;27.60
22418;DHT22;11376;50.932;4.442;2023-04-03T14:58:42;25.00;27.40
22418;DHT22;11376;50.932;4.442;2023-04-03T15:01:10;24.60;27.90
22418;DHT22;11376;50.932;4.442;2023-04-03T15:03:37;24.20;28.30
22418;DHT22;11376;50.932;4.442;2023-04-03T15:06:03;24.20;28.60
22418;DHT22;11376;50.932;4.442;2023-04-03T15:08:29;23.20;28.50
22418;DHT22;11376;50.932;4.442;2023-04-03T15:10:55;22.50;29.20
22418;DHT22;11376;50.932;4.442;2023-04-03T15:13:24;22.00;30.50
22418;DHT22;11376;50.932;4.442;2023-04-03T15:15:50;21.70;30.60
22418;DHT22;11376;50.932;4.442;2023-04-03T15:18:19;21.40;31.90
22418;DHT22;11376;50.932;4.442;2023-04-03T15:20:46;21.20;31.80
22418;DHT22;11376;50.932;4.442;2023-04-03T15:23:13;21.40;31.80
22418;DHT22;11376;50.932;4.442;2023-04-03T15:25:44;21.10;30.20
22418;DHT22;11376;50.932;4.442;2023-04-03T15:28:18;20.40;31.30
22418;DHT22;11376;50.932;4.442;2023-04-03T15:30:44;20.40;32.60
22418;DHT22;11376;50.932;4.442;2023-04-03T15:33:10;20.10;32.90
22418;DHT22;11376;50.932;4.442;2023-04-03T15:35:35;20.30;32.70
22418;DHT22;11376;50.932;4.442;2023-04-03T15:38:01;20.10;33.60
22418;DHT22;11376;50.932;4.442;2023-04-03T15:40:27;20.30;32.20
22418;DHT22;11376;50.932;4.442;2023-04-03T15:42:52;20.10;33.20
22418;DHT22;11376;50.932;4.442;2023-04-03T15:45:18;19.80;33.40
22418;DHT22;11376;50.932;4.442;2023-04-03T15:47:44;19.90;33.80
22418;DHT22;11376;50.932;4.442;2023-04-03T15:50:10;20.00;33.60
22418;DHT22;11376;50.932;4.442;2023-04-03T15:52:35;20.20;33.00
22418;DHT22;11376;50.932;4.442;2023-04-03T15:55:01;20.30;33.30
22418;DHT22;11376;50.932;4.442;2023-04-03T15:57:26;20.40;32.70
22418;DHT22;11376;50.932;4.442;2023-04-03T15:59:52;20.10;33.20
22418;DHT22;11376;50.932;4.442;2023-04-03T16:02:18;19.60;33.50
22418;DHT22;11376;50.932;4.442;2023-04-03T16:04:44;19.80;34.50
22418;DHT22;11376;50.932;4.442;2023-04-03T16:07:10;19.20;34.30
22418;DHT22;11376;50.932;4.442;2023-04-03T16:09:36;19.10;34.10
22418;DHT22;11376;50.932;4.442;2023-04-03T16:12:02;19.00;34.80
22418;DHT22;11376;50.932;4.442;2023-04-03T16:14:28;19.10;34.00
22418;DHT22;11376;50.932;4.442;2023-04-03T16:16:56;19.10;33.10
22418;DHT22;11376;50.932;4.442;2023-04-03T16:19:22;19.20;33.70
22418;DHT22;11376;50.932;4.442;2023-04-03T16:21:48;19.10;34.30
22418;DHT22;11376;50.932;4.442;2023-04-03T16:24:13;19.10;34.30
22418;DHT22;11376;50.932;4.442;2023-04-03T16:26:40;19.40;34.80
22418;DHT22;11376;50.932;4.442;2023-04-03T16:29:05;19.50;34.90
22418;DHT22;11376;50.932;4.442;2023-04-03T16:31:32;19.50;35.30
22418;DHT22;11376;50.932;4.442;2023-04-03T16:33:58;19.70;34.90
22418;DHT22;11376;50.932;4.442;2023-04-03T16:36:25;19.50;35.00
22418;DHT22;11376;50.932;4.442;2023-04-03T16:38:51;19.70;35.00
22418;DHT22;11376;50.932;4.442;2023-04-03T16:41:17;19.80;35.10
22418;DHT22;11376;50.932;4.442;2023-04-03T16:43:42;19.20;35.10
22418;DHT22;11376;50.932;4.442;2023-04-03T16:46:08;18.60;36.20
22418;DHT22;11376;50.932;4.442;2023-04-03T16:48:34;17.50;38.00
22418;DHT22;11376;50.932;4.442;2023-04-03T16:50:59;16.90;39.50
22418;DHT22;11376;50.932;4.442;2023-04-03T16:53:26;16.20;41.10
22418;DHT22;11376;50.932;4.442;2023-04-03T16:55:52;15.40;42.20
22418;DHT22;11376;50.932;4.442;2023-04-03T16:58:18;14.70;42.90
22418;DHT22;11376;50.932;4.442;2023-04-03T17:00:43;14.20;44.30
22418;DHT22;11376;50.932;4.442;2023-04-03T17:03:09;13.80;44.80
22418;DHT22;11376;50.932;4.442;2023-04-03T17:05:35;13.50;45.60
22418;DHT22;11376;50.932;4.442;2023-04-03T17:08:01;13.20;46.20
22418;DHT22;11376;50.932;4.442;2023-04-03T17:10:27;12.80;47.60
22418;DHT22;11376;50.932;4.442;2023-04-03T17:12:53;12.60;48.00
22418;DHT22;11376;50.932;4.442;2023-04-03T17:15:19;12.40;48.90
22418;DHT22;11376;50.932;4.442;2023-04-03T17:17:46;12.20;49.40
22418;DHT22;11376;50.932;4.442;2023-04-03T17:20:12;11.90;50.40